.
WxDataArchive / Data Records for 2007-06-19
2007-06-18 June 2007 2007-06-20

Data Records for Tuesday, 19 June 2007

Time	Temp	Chill	HIndex	Humid	Dewpt	 Wind 	HiWind	WindDir	Rain 	Barom 
-----	----	-----	------	-----	-----	------	------	-------	-----	----- 
00:00	76.3	76.3	78.1	65	63.6	0	2	248	0.00	29.814 
00:05	76.3	76.3	78.1	65	63.6	1	3	248	0.00	29.812 
00:10	76.3	76.3	78.1	65	63.6	0	2	270	0.00	29.814 
00:15	76.1	76.1	78.0	65	63.5	0	3	270	0.00	29.812 
00:20	76.0	76.0	77.8	66	63.8	0	2	45	0.00	29.809 
00:25	75.8	75.8	77.7	66	63.6	0	1	45	0.00	29.808 
00:30	75.8	75.8	77.7	66	63.6	0	2	315	0.00	29.806 
00:35	75.6	75.6	77.5	66	63.4	0	1	315	0.00	29.805 
00:40	75.4	75.4	77.3	67	63.7	0	2	315	0.00	29.802 
00:45	75.3	75.3	77.2	67	63.6	0	2	248	0.00	29.804 
00:50	75.3	75.3	77.2	67	63.6	0	2	0	0.00	29.802 
00:55	75.1	75.1	76.9	68	63.8	0	1	0	0.00	29.799 
01:00	74.9	74.9	74.9	68	63.6	0	3	0	0.00	29.800 
01:05	74.9	74.9	74.9	68	63.6	0	2	248	0.00	29.800 
01:10	74.9	74.9	74.9	68	63.6	0	1	248	0.00	29.799 
01:15	74.9	74.9	74.9	68	63.6	0	3	248	0.00	29.799 
01:20	74.9	74.9	74.9	68	63.6	0	1	248	0.00	29.799 
01:25	74.9	74.9	74.9	68	63.6	0	2	248	0.00	29.798 
01:30	74.9	74.9	74.9	68	63.6	0	1	248	0.00	29.798 
01:35	74.9	74.9	74.9	68	63.6	0	2	248	0.00	29.799 
01:40	75.1	75.1	76.9	68	63.8	1	3	248	0.00	29.801 
01:45	75.1	75.1	76.9	68	63.8	1	3	0	0.00	29.801 
01:50	75.1	75.1	77.0	67	63.4	1	4	248	0.00	29.800 
01:55	75.1	75.1	77.0	67	63.4	0	4	248	0.00	29.800 
02:00	75.1	75.1	77.0	67	63.4	0	2	270	0.00	29.800 
02:05	75.1	75.1	77.0	67	63.4	1	4	270	0.00	29.799 
02:10	75.1	75.1	77.0	67	63.4	0	3	248	0.00	29.799 
02:15	75.1	75.1	76.9	68	63.8	0	1	248	0.00	29.799 
02:20	75.1	75.1	76.9	68	63.8	1	4	248	0.00	29.798 
02:25	75.3	75.3	77.2	67	63.6	1	3	270	0.00	29.798 
02:30	75.3	75.3	77.1	68	64.0	0	2	270	0.00	29.794 
02:35	75.3	75.3	77.2	67	63.6	1	3	248	0.00	29.795 
02:40	75.4	75.4	77.3	67	63.7	1	4	248	0.00	29.792 
02:45	75.6	75.6	77.4	67	63.9	1	4	270	0.00	29.790 
02:50	75.8	75.8	77.6	67	64.0	1	3	270	0.00	29.789 
02:55	76.0	76.0	77.8	67	64.2	1	3	270	0.00	29.790 
03:00	76.0	76.0	77.8	67	64.2	1	3	338	0.00	29.787 
03:05	76.0	76.0	77.8	67	64.2	1	4	248	0.00	29.787 
03:10	75.8	75.8	77.6	67	64.0	1	4	248	0.00	29.786 
03:15	75.8	75.8	77.6	68	64.5	1	5	248	0.00	29.786 
03:20	75.8	75.8	77.6	68	64.5	1	4	248	0.00	29.784 
03:25	75.8	75.8	77.6	68	64.5	1	4	270	0.00	29.784 
03:30	75.6	75.6	77.3	69	64.7	1	4	248	0.00	29.785 
03:35	75.4	75.4	77.1	69	64.5	1	4	248	0.00	29.785 
03:40	75.3	75.3	77.0	70	64.8	0	2	315	0.00	29.785 
03:45	75.1	75.1	76.8	70	64.6	0	1	315	0.00	29.783 
03:50	75.1	75.1	76.7	71	65.0	0	1	315	0.00	29.783 
03:55	74.9	74.9	74.9	71	64.8	0	1	315	0.00	29.784 
04:00	74.7	74.7	74.7	72	65.1	0	1	315	0.00	29.785 
04:05	74.7	74.7	74.7	72	65.1	0	1	315	0.00	29.788 
04:10	74.6	74.6	74.6	72	65.0	0	1	315	0.00	29.788 
04:15	74.6	74.6	74.6	73	65.4	0	1	315	0.00	29.787 
04:20	74.4	74.4	74.4	73	65.2	0	1	315	0.00	29.787 
04:25	74.2	74.2	74.2	73	65.0	0	1	315	0.00	29.787 
04:30	74.0	74.0	74.0	74	65.2	0	2	315	0.00	29.788 
04:35	74.2	74.2	74.2	73	65.0	1	3	248	0.00	29.788 
04:40	74.4	74.4	74.4	73	65.2	1	3	248	0.00	29.787 
04:45	74.6	74.6	74.6	73	65.4	1	4	248	0.00	29.786 
04:50	74.9	74.9	74.9	72	65.2	1	3	270	0.00	29.786 
04:55	75.1	75.1	76.6	72	65.4	1	4	248	0.00	29.786 
05:00	75.1	75.1	76.6	72	65.4	1	3	270	0.00	29.787 
05:05	75.1	75.1	76.6	72	65.4	1	3	248	0.00	29.788 
05:10	75.1	75.1	76.6	72	65.4	1	5	248	0.00	29.788 
05:15	75.3	75.3	76.9	71	65.2	1	5	248	0.00	29.788 
05:20	75.3	75.3	76.9	71	65.2	1	6	248	0.00	29.791 
05:25	75.3	75.3	76.9	71	65.2	2	6	248	0.00	29.792 
05:30	75.4	75.4	77.0	71	65.3	1	3	248	0.00	29.791 
05:35	75.3	75.3	76.9	71	65.2	1	4	270	0.00	29.791 
05:40	75.3	75.3	76.8	72	65.6	0	3	248	0.00	29.798 
05:45	75.3	75.3	76.8	72	65.6	0	3	248	0.00	29.798 
05:50	75.3	75.3	76.8	72	65.6	1	4	248	0.00	29.800 
05:55	75.3	75.3	76.8	72	65.6	1	5	248	0.00	29.803 
06:00	75.4	75.4	76.9	72	65.7	2	4	248	0.00	29.803 
06:05	75.6	75.6	77.1	72	65.9	1	4	248	0.00	29.803 
06:10	75.6	75.6	77.1	72	65.9	1	6	270	0.00	29.803 
06:15	75.6	75.6	77.1	72	65.9	1	3	248	0.00	29.803 
06:20	75.6	75.6	77.1	72	65.9	1	4	248	0.00	29.804 
06:25	75.6	75.6	77.1	72	65.9	1	4	270	0.00	29.804 
06:30	75.8	75.8	77.3	72	66.1	1	6	248	0.00	29.805 
06:35	75.8	75.8	77.3	72	66.1	2	6	270	0.00	29.806 
06:40	75.8	75.8	77.3	72	66.1	1	6	225	0.00	29.808 
06:45	75.8	75.8	77.3	73	66.5	1	4	225	0.00	29.808 
06:50	76.0	76.0	77.5	73	66.7	1	3	248	0.00	29.814 
06:55	76.0	76.0	77.5	73	66.7	2	5	248	0.00	29.812 
07:00	76.0	76.0	77.5	72	66.3	2	4	248	0.00	29.817 
07:05	76.0	76.0	77.5	73	66.7	2	4	270	0.00	29.819 
07:10	75.8	75.8	77.3	73	66.5	1	4	270	0.00	29.819 
07:15	75.8	75.8	77.3	73	66.5	1	4	248	0.00	29.819 
07:20	75.8	75.8	77.3	72	66.1	1	3	270	0.00	29.822 
07:25	75.8	75.8	77.3	72	66.1	2	5	270	0.00	29.828 
07:30	75.6	75.6	77.0	74	66.7	1	3	270	0.00	29.826 
07:35	75.3	75.3	76.5	75	66.8	1	2	248	0.00	29.822 
07:40	74.7	74.7	74.7	78	67.4	0	1	270	0.01	29.820 
07:45	74.0	74.0	74.0	80	67.4	0	2	270	0.00	29.821 
07:50	73.9	73.9	73.9	81	67.7	0	1	270	0.00	29.822 
07:55	73.9	73.9	73.9	82	68.0	0	2	270	0.00	29.823 
08:00	73.7	73.7	73.7	81	67.5	1	2	270	0.00	29.822 
08:05	73.7	73.7	73.7	82	67.9	0	2	270	0.00	29.822 
08:10	73.7	73.7	73.7	82	67.9	1	2	270	0.00	29.822 
08:15	73.9	73.9	73.9	82	68.0	1	3	270	0.00	29.823 
08:20	73.9	73.9	73.9	82	68.0	0	2	248	0.00	29.824 
08:25	73.9	73.9	73.9	82	68.0	0	1	248	0.00	29.823 
08:30	73.9	73.9	73.9	82	68.0	1	3	248	0.00	29.829 
08:35	73.9	73.9	73.9	83	68.4	1	4	248	0.01	29.834 
08:40	73.3	73.3	73.3	85	68.5	0	1	248	0.04	29.835 
08:45	72.7	72.7	72.7	88	68.9	1	2	248	0.06	29.840 
08:50	72.0	72.0	72.0	90	68.9	1	3	248	0.03	29.846 
08:55	71.5	71.5	71.5	91	68.7	2	4	248	0.01	29.845 
09:00	71.3	71.3	71.3	92	68.8	1	3	248	0.01	29.840 
09:05	71.3	71.3	71.3	93	69.2	0	1	248	0.01	29.849 
09:10	71.1	71.1	71.1	94	69.3	0	2	292	0.00	29.849 
09:15	71.1	71.1	71.1	94	69.3	0	1	292	0.01	29.850 
09:20	70.9	70.9	70.9	94	69.1	0	1	292	0.00	29.847 
09:25	70.9	70.9	70.9	95	69.4	0	0	---	0.00	29.843 
09:30	70.9	70.9	70.9	95	69.4	0	2	292	0.00	29.845 
09:35	70.8	70.8	70.8	95	69.3	0	2	292	0.01	29.844 
09:40	70.8	70.8	70.8	95	69.3	0	1	292	0.00	29.844 
09:45	70.8	70.8	70.8	95	69.3	0	1	292	0.00	29.843 
09:50	70.8	70.8	70.8	95	69.3	0	3	292	0.00	29.848 
09:55	70.8	70.8	70.8	95	69.3	0	1	292	0.01	29.848 
10:00	70.6	70.6	70.6	95	69.1	0	1	292	0.01	29.848 
10:05	70.4	70.4	70.4	95	68.9	1	4	292	0.01	29.856 
10:10	70.3	70.3	70.3	95	68.8	0	2	315	0.00	29.858 
10:15	70.1	70.1	70.1	95	68.6	0	2	315	0.01	29.855 
10:20	69.9	69.9	69.9	96	68.7	1	2	315	0.00	29.855 
10:25	69.9	69.9	69.9	96	68.7	1	2	315	0.01	29.854 
10:30	69.9	69.9	69.9	96	68.7	1	3	270	0.01	29.859 
10:35	69.9	69.9	69.9	96	68.7	0	2	270	0.02	29.847 
10:40	69.8	69.8	69.8	96	68.6	1	3	270	0.03	29.847 
10:45	69.6	69.6	69.6	96	68.4	1	2	270	0.01	29.843 
10:50	69.3	69.3	69.3	96	68.1	0	2	270	0.01	29.843 
10:55	68.9	68.9	68.9	95	67.4	0	2	270	0.00	29.847 
11:00	69.3	69.3	69.3	96	68.1	0	2	270	0.00	29.859 
11:05	69.4	69.4	69.4	96	68.2	1	2	270	0.00	29.863 
11:10	69.9	69.9	69.9	96	68.7	0	3	270	0.00	29.860 
11:15	70.4	70.4	70.4	96	69.2	1	2	248	0.00	29.859 
11:20	70.8	70.8	70.8	96	69.6	0	2	248	0.00	29.854 
11:25	71.3	71.3	71.3	96	70.1	0	2	248	0.00	29.853 
11:30	71.3	71.3	71.3	94	69.5	1	3	248	0.00	29.856 
11:35	71.5	71.5	71.5	93	69.4	1	3	248	0.00	29.855 
11:40	71.6	71.6	71.6	92	69.1	1	3	270	0.00	29.858 
11:45	71.6	71.6	71.6	90	68.5	2	4	270	0.00	29.858 
11:50	71.8	71.8	71.8	90	68.7	0	2	248	0.00	29.858 
11:55	71.8	71.8	71.8	89	68.4	1	3	248	0.00	29.858 
12:00	71.8	71.8	71.8	90	68.7	1	2	248	0.00	29.860 
12:05	72.0	72.0	72.0	89	68.6	0	2	248	0.00	29.860 
12:10	72.1	72.1	72.1	89	68.7	0	2	248	0.00	29.861 
12:15	72.3	72.3	72.3	89	68.9	0	2	270	0.00	29.861 
12:20	73.0	73.0	73.0	88	69.2	0	2	270	0.00	29.858 
12:25	73.3	73.3	73.3	86	68.8	1	2	248	0.00	29.859 
12:30	73.3	73.3	73.3	84	68.2	1	3	315	0.00	29.860 
12:35	73.5	73.5	73.5	83	68.0	1	2	315	0.00	29.860 
12:40	73.9	73.9	73.9	83	68.4	1	3	270	0.00	29.859 
12:45	74.0	74.0	74.0	79	67.1	1	3	270	0.00	29.860 
12:50	74.2	74.2	74.2	77	66.5	2	4	292	0.00	29.860 
12:55	74.6	74.6	74.6	76	66.5	2	4	292	0.00	29.859 
13:00	74.7	74.7	74.7	76	66.6	2	5	270	0.00	29.856 
13:05	75.1	75.1	76.3	75	66.6	1	3	315	0.00	29.854 
13:10	75.3	75.3	76.7	73	66.0	1	3	315	0.00	29.856 
13:15	75.6	75.6	76.9	75	67.1	2	4	270	0.00	29.856 
13:20	75.8	75.8	77.3	72	66.1	2	4	270	0.00	29.856 
13:25	75.8	75.8	77.3	73	66.5	1	3	315	0.00	29.856 
13:30	76.1	76.1	77.6	73	66.8	1	2	315	0.00	29.855 
13:35	76.8	76.8	78.5	71	66.7	2	4	315	0.00	29.855 
13:40	77.4	77.4	79.2	69	66.4	2	5	315	0.00	29.854 
13:45	78.3	78.3	80.3	67	66.4	2	5	270	0.00	29.854 
13:50	78.8	78.8	80.5	61	64.2	3	5	270	0.00	29.850 
13:55	79.4	79.4	81.0	59	63.8	2	6	338	0.00	29.847 
14:00	79.8	79.8	81.6	60	64.7	2	4	315	0.00	29.849 
14:05	80.3	80.3	81.9	58	64.2	2	6	292	0.00	29.848 
14:10	80.3	80.3	81.6	55	62.6	3	6	270	0.00	29.848 
14:15	80.7	80.7	81.9	54	62.5	3	5	270	0.00	29.849 
14:20	80.7	80.7	81.9	54	62.5	2	4	270	0.00	29.850 
14:25	80.9	80.9	81.5	49	59.9	3	6	270	0.00	29.850 
14:30	80.7	80.7	81.0	46	58.0	2	5	315	0.00	29.845 
14:35	80.7	80.7	81.2	48	59.2	2	3	315	0.00	29.847 
14:40	81.1	81.1	81.6	48	59.5	2	6	270	0.00	29.850 
14:45	80.9	80.9	81.1	45	57.5	2	4	270	0.00	29.849 
14:50	80.7	80.7	81.2	48	59.2	3	5	248	0.00	29.849 
14:55	80.9	80.9	81.1	45	57.5	3	6	270	0.00	29.850 
15:00	80.9	80.9	81.1	45	57.5	2	4	315	0.00	29.852 
15:05	81.2	81.2	81.7	48	59.6	2	5	292	0.00	29.855 
15:10	81.8	81.8	82.3	48	60.2	2	5	248	0.00	29.853 
15:15	81.2	81.2	81.6	47	59.0	2	7	292	0.00	29.852 
15:20	80.9	80.9	81.5	49	59.9	2	9	315	0.00	29.852 
15:25	80.9	80.9	81.1	45	57.5	3	5	292	0.00	29.854 
15:30	80.9	80.9	80.9	43	56.3	3	6	292	0.00	29.854 
15:35	81.6	81.6	81.5	43	56.9	2	6	315	0.00	29.854 
15:40	81.8	81.8	81.5	42	56.4	2	3	315	0.00	29.855 
15:45	82.2	82.2	81.5	39	54.7	2	5	315	0.00	29.855 
15:50	81.8	81.8	81.3	40	55.1	3	8	315	0.00	29.857 
15:55	81.6	81.6	81.1	40	54.9	3	7	270	0.00	29.857 
16:00	81.6	81.6	80.7	36	52.0	3	11	270	0.00	29.859 
16:05	81.6	81.6	80.8	37	52.8	3	6	270	0.00	29.858 
16:10	81.4	81.4	80.8	38	53.3	2	7	292	0.00	29.866 
16:15	81.1	81.1	80.5	38	53.1	3	8	315	0.00	29.865 
16:20	81.1	81.1	80.6	39	53.8	2	5	270	0.00	29.866 
16:25	80.9	80.9	80.2	36	51.4	2	5	270	0.00	29.864 
16:30	80.9	80.9	79.8	31	47.4	3	6	292	0.00	29.869 
16:35	80.7	80.7	79.8	32	48.1	2	7	315	0.00	29.868 
16:40	80.7	80.7	79.8	32	48.1	2	6	315	0.00	29.870 
16:45	80.7	80.7	79.8	32	48.1	2	4	292	0.00	29.869 
16:50	80.5	80.5	79.9	36	51.1	2	7	292	0.00	29.870 
16:55	80.5	80.5	79.6	32	47.9	2	4	270	0.00	29.871 
17:00	80.7	80.7	79.8	33	48.9	2	5	270	0.00	29.873 
17:05	80.3	80.3	79.3	29	45.1	2	5	315	0.00	29.875 
17:10	80.1	80.1	79.4	32	47.6	1	5	315	0.00	29.878 
17:15	80.1	80.1	79.3	31	46.7	1	3	315	0.00	29.877 
17:20	79.9	79.9	79.2	31	46.5	1	4	292	0.00	29.877 
17:25	79.9	79.9	79.2	31	46.5	2	4	270	0.00	29.875 
17:30	79.6	79.6	79.2	33	47.9	1	5	315	0.00	29.875 
17:35	79.4	79.4	79.0	33	47.8	2	4	315	0.00	29.877 
17:40	79.2	79.2	78.9	33	47.6	2	5	270	0.00	29.882 
17:45	79.2	79.2	78.9	32	46.8	2	5	315	0.00	29.887 
17:50	79.0	79.0	79.0	35	49.0	1	5	315	0.00	29.888 
17:55	78.8	78.8	78.8	35	48.8	2	3	315	0.00	29.888 
18:00	78.8	78.8	78.9	36	49.6	1	5	315	0.00	29.888 
18:05	79.0	79.0	78.9	34	48.2	1	3	270	0.00	29.890 
18:10	78.8	78.8	78.6	32	46.4	2	5	270	0.00	29.894 
18:15	78.6	78.6	78.5	31	45.4	2	5	270	0.00	29.894 
18:20	78.5	78.5	78.5	32	46.2	2	4	315	0.00	29.897 
18:25	78.1	78.1	78.4	33	46.6	2	5	315	0.00	29.901 
18:30	77.9	77.9	78.4	35	48.0	1	4	292	0.00	29.900 
18:35	77.9	77.9	78.4	35	48.0	2	4	270	0.00	29.900 
18:40	77.9	77.9	78.4	36	48.8	2	4	292	0.00	29.900 
18:45	77.7	77.7	78.3	35	47.8	2	5	270	0.00	29.900 
18:50	77.4	77.4	78.1	35	47.6	2	5	270	0.00	29.901 
18:55	77.2	77.2	78.1	35	47.4	2	5	270	0.00	29.904 
19:00	76.8	76.8	77.9	35	47.1	2	4	315	0.00	29.906 
19:05	76.7	76.7	77.9	35	47.0	1	5	315	0.00	29.908 
19:10	76.5	76.5	77.8	36	47.5	2	5	315	0.00	29.907 
19:15	76.3	76.3	77.8	37	48.1	2	5	248	0.00	29.909 
19:20	76.0	76.0	77.5	34	45.6	2	4	292	0.00	29.910 
19:25	75.6	75.6	77.6	37	47.5	1	2	292	0.00	29.912 
19:30	75.4	75.4	77.4	35	45.8	1	3	292	0.00	29.918 
19:35	75.1	75.1	77.3	35	45.6	1	2	315	0.00	29.918 
19:40	74.7	74.7	74.7	35	45.2	1	2	338	0.00	29.920 
19:45	74.4	74.4	74.4	35	44.9	0	2	292	0.00	29.924 
19:50	74.0	74.0	74.0	35	44.6	0	2	315	0.00	29.924 
19:55	73.9	73.9	73.9	36	45.2	0	1	315	0.00	29.924 
20:00	73.5	73.5	73.5	37	45.6	0	1	315	0.00	29.922 
20:05	73.0	73.0	73.0	38	45.9	0	0	---	0.00	29.925 
20:10	72.7	72.7	72.7	39	46.3	0	0	---	0.00	29.927 
20:15	72.1	72.1	72.1	40	46.4	0	0	---	0.00	29.930 
20:20	71.5	71.5	71.5	41	46.5	0	0	---	0.00	29.930 
20:25	70.8	70.8	70.8	42	46.6	0	0	---	0.00	29.931 
20:30	70.3	70.3	70.3	44	47.3	0	0	---	0.00	29.934 
20:35	69.6	69.6	69.6	46	47.9	0	0	---	0.00	29.937 
20:40	68.9	68.9	68.9	47	47.8	0	0	---	0.00	29.939 
20:45	68.3	68.3	68.3	49	48.4	0	0	---	0.00	29.943 
20:50	67.6	67.6	67.6	50	48.3	0	0	---	0.00	29.947 
20:55	67.1	67.1	67.1	52	48.9	0	0	---	0.00	29.949 
21:00	66.6	66.6	66.6	53	48.9	0	0	---	0.00	29.949 
21:05	66.3	66.3	66.3	55	49.6	0	0	---	0.00	29.954 
21:10	65.8	65.8	65.8	57	50.1	0	0	---	0.00	29.960 
21:15	65.5	65.5	65.5	57	49.9	0	0	---	0.00	29.963 
21:20	65.0	65.0	65.0	59	50.3	0	0	---	0.00	29.964 
21:25	64.7	64.7	64.7	61	50.9	0	0	---	0.00	29.966 
21:30	64.3	64.3	64.3	62	51.0	0	0	---	0.00	29.968 
21:35	64.2	64.2	64.2	63	51.3	0	0	---	0.00	29.972 
21:40	63.9	63.9	63.9	62	50.6	0	0	---	0.00	29.976 
21:45	63.7	63.7	63.7	63	50.9	0	0	---	0.00	29.979 
21:50	63.7	63.7	63.7	63	50.9	0	0	---	0.00	29.982 
21:55	63.5	63.5	63.5	63	50.7	0	0	---	0.00	29.983 
22:00	63.4	63.4	63.4	63	50.6	0	0	---	0.00	29.983 
22:05	63.5	63.5	63.5	62	50.2	0	0	---	0.00	29.986 
22:10	63.7	63.7	63.7	62	50.4	0	0	---	0.00	29.986 
22:15	63.9	63.9	63.9	62	50.6	0	0	---	0.00	29.988 
22:20	63.9	63.9	63.9	61	50.2	0	0	---	0.00	29.987 
22:25	64.0	64.0	64.0	61	50.3	0	0	---	0.00	29.989 
22:30	65.0	65.0	65.0	57	49.4	0	1	315	0.00	29.989 
22:35	65.6	65.6	65.6	58	50.4	0	0	---	0.00	29.993 
22:40	65.8	65.8	65.8	56	49.7	0	1	315	0.00	29.994 
22:45	66.0	66.0	66.0	56	49.8	0	0	---	0.00	29.996 
22:50	66.0	66.0	66.0	57	50.3	0	1	315	0.00	29.998 
22:55	66.0	66.0	66.0	57	50.3	0	0	---	0.00	29.998 
23:00	65.8	65.8	65.8	57	50.1	0	0	---	0.00	29.999 
23:05	66.0	66.0	66.0	57	50.3	0	1	315	0.00	29.997 
23:10	65.8	65.8	65.8	58	50.6	0	0	---	0.00	29.997 
23:15	65.6	65.6	65.6	58	50.4	0	1	315	0.00	29.997 
23:20	65.5	65.5	65.5	58	50.3	0	0	---	0.00	29.997 
23:25	65.2	65.2	65.2	59	50.5	0	0	---	0.00	30.001 
23:30	64.8	64.8	64.8	60	50.6	0	0	---	0.00	30.004 
23:35	64.3	64.3	64.3	61	50.6	0	0	---	0.00	30.003 
23:40	63.9	63.9	63.9	62	50.6	0	0	---	0.00	30.007 
23:45	63.5	63.5	63.5	63	50.7	0	0	---	0.00	30.005 
23:50	63.2	63.2	63.2	64	50.8	0	0	---	0.00	30.004 
23:55	62.7	62.7	62.7	65	50.8	0	0	---	0.00	30.008 

CoCoRaHS
IN-AL-39
A2 Web Hosting
Creative Commons License
GoDaddy
Look for:

loaded 2017-10-20 20:02:25 • last modified 2010-11-18 10:43:29
Privacy PolicyDisclaimer
• wx.awcolley.com is powered by PmWiki v.2002016 •
• all content (unless otherwise noted) © 2017 A W Colley